createdAt,value
2022-09-17T00:04:11.056Z,11.42
2022-09-17T00:19:41.731Z,11.36
2022-09-17T00:24:48.797Z,11.37
2022-09-17T00:35:03.828Z,11.33
2022-09-17T00:45:20.796Z,11.32
2022-09-17T00:50:28.096Z,11.31
2022-09-17T00:55:38.881Z,11.31
2022-09-17T01:17:08.295Z,11.30
2022-09-17T01:22:16.657Z,11.33
2022-09-17T01:27:51.951Z,11.36
2022-09-17T01:33:12.302Z,11.42
2022-09-17T01:49:13.956Z,11.58
2022-09-17T01:59:55.243Z,11.74
2022-09-17T02:05:06.045Z,11.69
2022-09-17T02:10:14.528Z,11.69
2022-09-17T02:20:44.711Z,11.70
2022-09-17T02:25:55.586Z,11.70
2022-09-17T02:31:03.759Z,11.69
2022-09-17T02:52:11.850Z,11.68
2022-09-17T02:57:21.364Z,11.67
2022-09-17T03:02:28.401Z,11.66
2022-09-17T03:07:37.606Z,11.66
2022-09-17T03:12:40.833Z,11.66
2022-09-17T03:17:43.538Z,11.67
2022-09-17T03:22:53.225Z,11.69
2022-09-17T03:27:56.330Z,11.71
2022-09-17T03:32:59.112Z,11.74
2022-09-17T03:38:07.145Z,11.76
2022-09-17T03:43:10.262Z,11.78
2022-09-17T03:48:12.973Z,11.81
2022-09-17T03:53:22.112Z,11.83
2022-09-17T03:58:24.824Z,11.85
2022-09-17T04:03:28.640Z,11.87
2022-09-17T04:32:18.429Z,12.04
2022-09-17T04:42:46.769Z,12.17
2022-09-17T04:58:39.449Z,12.22
2022-09-17T05:03:42.245Z,12.27
2022-09-17T05:08:45.822Z,12.31
2022-09-17T05:13:54.287Z,12.35
2022-09-17T05:18:58.689Z,12.41
2022-09-17T05:24:02.438Z,12.43
2022-09-17T05:35:46.549Z,12.61
2022-09-17T05:40:49.620Z,12.55
2022-09-17T06:06:04.527Z,13.01
2022-09-17T06:11:12.720Z,13.12
2022-09-17T06:23:15.877Z,13.67
2022-09-17T06:28:19.072Z,13.82
2022-09-17T06:33:22.324Z,14.05
2022-09-17T06:44:01.263Z,14.54
2022-09-17T06:49:04.069Z,14.57
2022-09-17T06:54:06.868Z,14.66
2022-09-17T07:15:32.276Z,15.78
2022-09-17T07:20:35.086Z,15.95
2022-09-17T07:25:38.005Z,16.08
2022-09-17T07:52:48.687Z,16.52
2022-09-17T08:13:23.534Z,16.24
2022-09-17T08:23:43.795Z,16.49
2022-09-17T08:28:47.722Z,16.66
2022-09-17T08:39:09.410Z,17.08
2022-09-17T09:01:46.680Z,18.07
2022-09-17T09:06:53.461Z,18.18
2022-09-17T09:17:29.745Z,18.65
2022-09-17T09:28:21.815Z,18.77
2022-09-17T09:33:29.719Z,18.79
2022-09-17T09:38:35.092Z,19.07
2022-09-17T09:44:03.136Z,19.27
2022-09-17T09:49:17.679Z,19.38
2022-09-17T09:54:36.095Z,19.53
2022-09-17T09:59:44.634Z,19.57
2022-09-17T10:04:52.722Z,19.57
2022-09-17T10:10:10.395Z,19.69
2022-09-17T10:15:28.756Z,19.92
2022-09-17T10:20:32.006Z,20.20
2022-09-17T10:25:36.294Z,20.38
2022-09-17T10:36:16.988Z,20.55
2022-09-17T10:41:22.176Z,20.44
2022-09-17T10:46:31.846Z,20.39
2022-09-17T10:51:40.412Z,20.62
2022-09-17T10:56:50.730Z,20.93
2022-09-17T11:13:05.434Z,21.61
2022-09-17T11:18:42.341Z,21.74
2022-09-17T11:24:16.619Z,21.94
2022-09-17T11:35:26.319Z,22.17
2022-09-17T11:45:40.307Z,22.01
2022-09-17T12:06:37.482Z,21.52
2022-09-17T12:22:28.275Z,21.28
2022-09-17T12:27:39.231Z,21.14
2022-09-17T12:33:03.292Z,21.04
2022-09-17T12:38:24.764Z,20.94
2022-09-17T12:43:44.292Z,20.81
2022-09-17T12:49:04.776Z,20.69
2022-09-17T12:54:26.418Z,20.58
2022-09-17T12:59:33.497Z,20.50
2022-09-17T13:05:06.408Z,20.46
2022-09-17T13:21:33.157Z,20.46
2022-09-17T13:26:39.654Z,20.28
2022-09-17T13:37:20.689Z,20.42
2022-09-17T13:42:26.935Z,20.46
2022-09-17T13:47:32.672Z,20.51
2022-09-17T13:58:00.298Z,20.49
2022-09-17T14:08:47.898Z,20.29
2022-09-17T14:13:58.760Z,20.10
2022-09-17T14:19:05.962Z,19.99
2022-09-17T14:24:23.780Z,19.88
2022-09-17T14:29:44.408Z,19.81
2022-09-17T14:34:47.699Z,19.72
2022-09-17T14:39:56.282Z,19.59
2022-09-17T14:45:02.378Z,19.49
2022-09-17T14:50:24.993Z,19.46
2022-09-17T14:55:33.454Z,19.40
2022-09-17T15:27:22.692Z,19.28
2022-09-17T15:38:18.903Z,18.92
2022-09-17T15:43:26.374Z,18.74
2022-09-17T15:48:37.355Z,18.68
2022-09-17T16:04:28.536Z,18.37
2022-09-17T16:09:43.212Z,18.15
2022-09-17T16:30:52.570Z,17.37
2022-09-17T16:46:35.530Z,16.94
2022-09-17T16:56:59.822Z,16.65
2022-09-17T17:02:03.810Z,16.42
2022-09-17T17:07:06.588Z,16.26
2022-09-17T17:12:14.854Z,16.08
2022-09-17T17:17:18.568Z,15.92
2022-09-17T17:22:21.476Z,15.78
2022-09-17T17:27:29.624Z,15.65
2022-09-17T17:32:32.377Z,15.54
2022-09-17T17:37:35.099Z,15.43
2022-09-17T17:42:43.206Z,15.33
2022-09-17T17:58:28.714Z,15.11
2022-09-17T18:03:31.448Z,14.94
2022-09-17T18:08:36.570Z,14.85
2022-09-17T18:13:45.541Z,14.76
2022-09-17T18:18:48.747Z,14.68
2022-09-17T18:23:52.112Z,14.58
2022-09-17T18:29:02.311Z,14.48
2022-09-17T18:34:12.239Z,14.40
2022-09-17T18:44:43.447Z,14.22
2022-09-17T18:49:46.181Z,14.15
2022-09-17T19:00:12.835Z,14.06
2022-09-17T19:05:16.389Z,13.92
2022-09-17T19:10:20.275Z,13.83
2022-09-17T19:20:46.940Z,13.78
2022-09-17T19:36:31.248Z,13.61
2022-09-17T19:46:52.993Z,13.50
2022-09-17T19:51:55.896Z,13.38
2022-09-17T19:56:58.695Z,13.33
2022-09-17T20:02:08.053Z,13.27
2022-09-17T20:07:10.942Z,13.25
2022-09-17T20:12:13.669Z,13.20
2022-09-17T20:17:21.772Z,13.16
2022-09-17T20:22:24.788Z,13.13
2022-09-17T20:27:27.663Z,13.10
2022-09-17T20:32:37.133Z,13.07
2022-09-17T20:43:03.103Z,12.99
2022-09-17T20:48:11.380Z,12.96
2022-09-17T20:53:14.312Z,12.93
2022-09-17T20:58:17.151Z,12.89
2022-09-17T21:03:25.228Z,12.89
2022-09-17T21:08:28.356Z,12.90
2022-09-17T21:13:31.459Z,12.88
2022-09-17T21:18:40.005Z,12.88
2022-09-17T21:23:43.812Z,12.86
2022-09-17T21:28:50.085Z,12.84
2022-09-17T21:34:01.638Z,12.82
2022-09-17T21:55:27.139Z,12.65
2022-09-17T22:00:32.278Z,12.61
2022-09-17T22:05:36.286Z,12.56
2022-09-17T22:10:45.458Z,12.52
2022-09-17T22:58:51.279Z,12.12
2022-09-17T23:10:36.570Z,12.15
2022-09-17T23:15:40.270Z,12.02
2022-09-17T23:26:04.060Z,11.98
2022-09-17T23:31:11.549Z,11.97
2022-09-17T23:41:39.089Z,12.01
2022-09-17T23:52:07.320Z,12.00
2022-09-17T23:57:10.212Z,11.91
